Time;durP1;ratioP1;P1;durP2;ratioP2;P2;SDS_P1;SDS_P2;PMS_P1;PMS_P2;Temp;Humidity;BMP_temperature;BMP_pressure;BME280_temperature;BME280_humidity;BME280_pressure;Samples;Min_cycle;Max_cycle;Signal;HPM_P1;HPM_P2
2022/05/24 00:00:26;;;;;;;;;;;;;;;15.44;73.57;99834.28;5085302;28;19924;-77
2022/05/24 00:02:52;;;;;;;;;;;;;;;15.51;73.99;99821.69;5092277;28;20373;-74
2022/05/24 00:05:17;;;;;;;;;;;;;;;15.51;74.11;99826.94;5091545;28;19924;-74
2022/05/24 00:07:43;;;;;;;;;;;;;;;15.53;74.41;99831.16;5086142;28;20713;-78
2022/05/24 00:10:10;;;;;;;;;;;;;;;15.40;74.62;99830.97;5083876;28;19923;-77
2022/05/24 00:12:37;;;;;;;;;;;;;;;15.42;74.10;99823.88;5086453;28;19924;-77
2022/05/24 00:17:51;;;;;;;;;;;;;;;15.49;73.38;99837.47;5089340;28;19944;-78
2022/05/24 00:20:17;;;;;;;;;;;;;;;15.47;74.03;99841.97;5086743;28;19972;-78
2022/05/24 00:22:42;;;;;;;;;;;;;;;15.47;73.60;99834.09;5066849;28;20026;-78
2022/05/24 00:25:08;;;;;;;;;;;;;;;15.48;73.41;99827.09;5085511;28;19923;-78
2022/05/24 00:27:33;;;;;;;;;;;;;;;15.49;73.07;99820.91;5065349;28;19920;-78
2022/05/24 00:29:59;;;;;;;;;;;;;;;15.52;72.39;99816.38;5066022;28;20346;-74
2022/05/24 00:32:24;;;;;;;;;;;;;;;15.51;73.66;99824.31;5088482;28;19924;-74
2022/05/24 00:34:50;;;;;;;;;;;;;;;15.45;74.13;99820.28;5074356;28;19943;-74
2022/05/24 00:37:17;;;;;;;;;;;;;;;15.40;73.91;99811.81;5093427;28;19931;-74
2022/05/24 00:39:43;;;;;;;;;;;;;;;15.43;73.81;99814.25;5088430;28;20339;-74
2022/05/24 00:42:12;;;;;;;;;;;;;;;15.43;74.85;99815.09;5091402;28;19920;-74
2022/05/24 00:44:39;;;;;;;;;;;;;;;15.53;73.86;99814.59;5094207;28;20181;-74
2022/05/24 00:47:21;;;;;;;;;;;;;;;15.47;73.87;99815.78;5086209;28;19924;-74
2022/05/24 00:49:49;;;;;;;;;;;;;;;15.50;73.30;99797.28;5090188;28;20033;-77
2022/05/24 00:52:16;;;;;;;;;;;;;;;15.45;73.58;99793.25;5099530;28;19924;-77
2022/05/24 00:54:42;;;;;;;;;;;;;;;15.50;74.17;99792.06;5089631;28;20817;-77
2022/05/24 00:57:13;;;;;;;;;;;;;;;15.49;73.61;99789.50;5091679;28;19920;-77
2022/05/24 00:59:45;;;;;;;;;;;;;;;15.49;73.46;99782.50;5090796;28;19920;-78
2022/05/24 01:02:10;;;;;;;;;;;;;;;15.55;73.31;99782.16;5095882;28;20550;-78
2022/05/24 01:04:36;;;;;;;;;;;;;;;15.45;73.39;99781.00;5088887;28;19924;-78
2022/05/24 01:07:01;;;;;;;;;;;;;;;15.48;74.09;99787.84;5091474;28;20058;-78
2022/05/24 01:09:36;;;;;;;;;;;;;;;15.46;74.40;99797.53;5085662;28;19928;-78
2022/05/24 01:12:05;;;;;;;;;;;;;;;15.44;74.27;99792.41;5072974;28;19959;-78
2022/05/24 01:14:31;;;;;;;;;;;;;;;15.47;74.18;99789.63;5087774;28;19977;-78
2022/05/24 01:16:57;;;;;;;;;;;;;;;15.46;74.06;99781.84;5091787;28;19920;-78
2022/05/24 01:19:43;;;;;;;;;;;;;;;15.46;73.43;99785.31;5088291;28;19954;-74
2022/05/24 01:22:30;;;;;;;;;;;;;;;15.37;74.62;99794.50;5053747;28;20382;-74
2022/05/24 01:25:13;;;;;;;;;;;;;;;15.45;74.31;99788.03;5089217;28;19951;-77
2022/05/24 01:27:39;;;;;;;;;;;;;;;15.42;74.65;99809.97;5092693;28;20435;-77
2022/05/24 01:30:05;;;;;;;;;;;;;;;15.43;74.27;99806.41;5072909;28;19982;-77
2022/05/24 01:38:02;;;;;;;;;;;;;;;15.39;73.91;99815.38;5088964;28;19996;-74
2022/05/24 01:40:28;;;;;;;;;;;;;;;15.43;73.49;99817.72;5091064;28;20269;-77
2022/05/24 01:42:53;;;;;;;;;;;;;;;15.39;73.95;99824.06;5068993;28;19921;-77
2022/05/24 01:45:21;;;;;;;;;;;;;;;15.37;73.26;99818.06;5088408;28;19920;-77
2022/05/24 01:47:48;;;;;;;;;;;;;;;15.44;73.07;99810.72;5089333;28;19928;-74
2022/05/24 01:50:17;;;;;;;;;;;;;;;15.45;72.15;99808.97;5086396;28;19924;-74
2022/05/24 01:52:52;;;;;;;;;;;;;;;15.45;72.82;99811.56;5086269;28;21600;-74
2022/05/24 01:55:33;;;;;;;;;;;;;;;15.32;73.28;99814.88;5092664;28;20407;-74
2022/05/24 01:58:00;;;;;;;;;;;;;;;15.32;73.82;99811.41;5086217;28;19935;-74
2022/05/24 02:00:26;;;;;;;;;;;;;;;15.36;72.85;99805.09;5086147;28;19939;-77
2022/05/24 02:02:51;;;;;;;;;;;;;;;15.39;72.33;99800.50;5072737;28;20569;-77
2022/05/24 02:05:28;;;;;;;;;;;;;;;15.39;72.63;99802.28;5086405;28;19931;-77
2022/05/24 02:07:54;;;;;;;;;;;;;;;15.34;72.57;99799.91;5094063;28;19932;-77
2022/05/24 02:10:19;;;;;;;;;;;;;;;15.26;72.40;99794.28;5085961;28;20352;-74
2022/05/24 02:12:50;;;;;;;;;;;;;;;15.37;71.26;99791.03;5087110;28;20666;-74
2022/05/24 02:15:22;;;;;;;;;;;;;;;15.38;72.20;99779.66;5084072;28;20383;-77
2022/05/24 02:18:06;;;;;;;;;;;;;;;15.33;72.27;99790.38;5085552;28;19938;-77
2022/05/24 02:20:33;;;;;;;;;;;;;;;15.42;71.89;99783.81;5086905;28;19923;-77
2022/05/24 02:22:58;;;;;;;;;;;;;;;15.26;72.02;99786.44;5087640;28;19924;-78
2022/05/24 02:25:30;;;;;;;;;;;;;;;15.31;71.83;99786.16;5087938;28;19926;-77
2022/05/24 02:27:55;;;;;;;;;;;;;;;15.29;72.76;99780.19;5088343;28;20490;-77
2022/05/24 02:30:22;;;;;;;;;;;;;;;15.30;72.70;99776.63;5078403;28;19917;-77
2022/05/24 02:32:48;;;;;;;;;;;;;;;15.30;73.19;99790.53;5085707;28;21265;-77
2022/05/24 02:35:14;;;;;;;;;;;;;;;15.23;73.36;99790.97;5053549;28;19982;-78
2022/05/24 02:37:39;;;;;;;;;;;;;;;15.30;73.94;99798.38;5086689;28;19924;-77
2022/05/24 02:42:49;;;;;;;;;;;;;;;15.15;75.27;99790.56;5088792;28;19931;-77
2022/05/24 02:45:14;;;;;;;;;;;;;;;15.12;75.92;99780.28;5064112;28;19924;-77
2022/05/24 02:47:40;;;;;;;;;;;;;;;15.15;75.71;99782.72;5068051;28;19928;-77
2022/05/24 02:50:08;;;;;;;;;;;;;;;15.18;75.79;99780.78;5087434;28;20006;-74
2022/05/24 02:52:33;;;;;;;;;;;;;;;15.13;75.96;99781.94;5085485;28;19956;-74
2022/05/24 02:54:58;;;;;;;;;;;;;;;15.06;76.25;99773.63;5090453;28;19955;-74
2022/05/24 02:57:24;;;;;;;;;;;;;;;15.13;75.54;99767.09;5086354;28;19934;-74
2022/05/24 02:59:49;;;;;;;;;;;;;;;15.20;75.80;99780.69;5085375;28;19928;-74
2022/05/24 03:02:14;;;;;;;;;;;;;;;15.13;75.82;99784.56;5087974;28;19924;-74
2022/05/24 03:04:40;;;;;;;;;;;;;;;15.13;76.07;99785.41;5084995;28;19920;-78
2022/05/24 03:09:49;;;;;;;;;;;;;;;15.18;75.38;99798.25;5084501;28;20407;-77
2022/05/24 03:14:58;;;;;;;;;;;;;;;15.10;74.26;99789.97;5088494;28;20058;-74
2022/05/24 03:17:24;;;;;;;;;;;;;;;15.11;74.46;99799.50;5093180;28;20002;-77
2022/05/24 03:19:51;;;;;;;;;;;;;;;15.11;74.22;99808.19;5088010;28;19935;-77
2022/05/24 03:22:17;;;;;;;;;;;;;;;15.07;74.21;99811.91;5089123;28;19973;-77
2022/05/24 03:24:42;;;;;;;;;;;;;;;15.08;74.81;99802.28;5091387;28;20002;-77
2022/05/24 03:27:13;;;;;;;;;;;;;;;15.11;75.90;99802.13;5053473;28;19927;-77
2022/05/24 03:29:39;;;;;;;;;;;;;;;15.15;75.36;99803.66;5088719;28;20018;-77
2022/05/24 03:32:05;;;;;;;;;;;;;;;15.09;75.94;99796.13;5089156;28;20337;-74
2022/05/24 03:34:31;;;;;;;;;;;;;;;15.11;75.77;99795.13;5086842;28;19931;-77
2022/05/24 03:36:56;;;;;;;;;;;;;;;15.17;75.52;99807.88;5067953;28;20301;-77
2022/05/24 03:39:21;;;;;;;;;;;;;;;15.09;75.47;99799.59;5086809;28;19920;-77
2022/05/24 03:41:47;;;;;;;;;;;;;;;15.12;75.36;99809.06;5079249;28;20061;-77
2022/05/24 03:44:12;;;;;;;;;;;;;;;15.10;75.33;99803.88;5057017;28;20328;-77
2022/05/24 03:46:38;;;;;;;;;;;;;;;15.11;75.58;99802.97;5090409;28;20022;-77
2022/05/24 03:49:03;;;;;;;;;;;;;;;15.11;72.98;99800.34;5070994;28;20023;-77
2022/05/24 03:51:29;;;;;;;;;;;;;;;14.97;72.44;99802.03;5084753;28;19927;-77
2022/05/24 03:53:54;;;;;;;;;;;;;;;15.06;71.63;99801.53;5088324;28;20289;-77
2022/05/24 03:56:20;;;;;;;;;;;;;;;14.89;71.61;99804.22;5085922;28;20012;-77
2022/05/24 03:58:45;;;;;;;;;;;;;;;14.87;72.00;99805.13;5086376;28;19924;-77
2022/05/24 04:01:10;;;;;;;;;;;;;;;14.87;70.77;99812.13;5088980;28;19924;-77
2022/05/24 04:03:36;;;;;;;;;;;;;;;14.91;69.29;99808.44;5092813;28;20018;-77
2022/05/24 04:06:01;;;;;;;;;;;;;;;14.95;70.97;99816.97;5092362;28;19924;-77
2022/05/24 04:08:29;;;;;;;;;;;;;;;14.98;68.92;99816.81;5099026;28;19924;-77
2022/05/24 04:11:08;;;;;;;;;;;;;;;14.81;70.80;99825.53;5088911;28;20023;-77
2022/05/24 04:13:34;;;;;;;;;;;;;;;14.76;72.67;99832.78;5092521;28;20388;-74
2022/05/24 04:16:00;;;;;;;;;;;;;;;14.64;69.99;99822.94;5088979;28;19924;-74
2022/05/24 04:18:26;;;;;;;;;;;;;;;14.68;70.61;99833.13;5089116;28;19943;-76
2022/05/24 04:20:51;;;;;;;;;;;;;;;14.65;71.72;99843.75;5069378;28;20019;-77
2022/05/24 04:23:19;;;;;;;;;;;;;;;14.60;73.74;99858.84;5088091;28;19978;-73
2022/05/24 04:25:44;;;;;;;;;;;;;;;14.55;72.44;99881.78;5089125;28;19959;-73
2022/05/24 04:28:10;;;;;;;;;;;;;;;14.58;71.61;99897.28;5089035;28;19994;-77
2022/05/24 04:30:36;;;;;;;;;;;;;;;14.55;72.54;99909.66;5091172;28;19931;-76
2022/05/24 04:33:01;;;;;;;;;;;;;;;14.45;73.51;99906.66;5076188;28;20289;-76
2022/05/24 04:35:26;;;;;;;;;;;;;;;14.58;72.11;99914.75;5090939;28;20014;-74
2022/05/24 04:37:51;;;;;;;;;;;;;;;14.43;72.56;99920.72;5069791;28;19920;-77
2022/05/24 04:40:17;;;;;;;;;;;;;;;14.43;73.48;99916.34;5087999;28;20018;-77
2022/05/24 04:42:42;;;;;;;;;;;;;;;14.59;72.16;99911.22;5094056;28;19924;-77
2022/05/24 04:45:09;;;;;;;;;;;;;;;14.39;73.81;99911.34;5100771;28;21007;-77
2022/05/24 04:47:35;;;;;;;;;;;;;;;14.45;73.14;99924.97;5100299;28;19946;-77
2022/05/24 04:50:05;;;;;;;;;;;;;;;14.36;73.68;99917.56;5097354;28;19920;-77
2022/05/24 04:52:32;;;;;;;;;;;;;;;14.40;73.85;99936.56;5093918;28;19924;-77
2022/05/24 04:54:58;;;;;;;;;;;;;;;14.42;73.45;99942.56;5095769;28;19931;-77
2022/05/24 04:57:23;;;;;;;;;;;;;;;14.42;73.10;99950.38;5095398;28;19920;-74
2022/05/24 04:59:48;;;;;;;;;;;;;;;14.31;72.75;99949.16;5093045;28;20014;-77
2022/05/24 05:02:14;;;;;;;;;;;;;;;14.40;73.70;99960.94;5102865;28;19973;-77
2022/05/24 05:04:39;;;;;;;;;;;;;;;14.35;73.47;99968.16;5096803;28;19924;-76
2022/05/24 05:07:05;;;;;;;;;;;;;;;14.35;71.98;99960.31;5065366;28;19917;-76
2022/05/24 05:09:38;;;;;;;;;;;;;;;14.28;73.62;99957.16;5093703;28;19994;-77
2022/05/24 05:12:07;;;;;;;;;;;;;;;14.20;74.14;99961.06;5094153;28;20079;-77
2022/05/24 05:14:33;;;;;;;;;;;;;;;14.25;73.98;99961.69;5065521;28;19934;-77
2022/05/24 05:16:58;;;;;;;;;;;;;;;14.24;73.75;99965.19;5092067;28;19919;-77
2022/05/24 05:19:24;;;;;;;;;;;;;;;14.25;74.03;99964.28;5090858;28;19924;-77
2022/05/24 05:21:49;;;;;;;;;;;;;;;14.28;73.90;99971.97;5092632;28;19928;-74
2022/05/24 05:24:14;;;;;;;;;;;;;;;14.22;74.23;99980.13;5074557;28;19934;-77
2022/05/24 05:26:40;;;;;;;;;;;;;;;14.35;73.86;99973.38;5092683;28;19916;-77
2022/05/24 05:29:05;;;;;;;;;;;;;;;14.22;74.03;99975.75;5089287;28;20381;-77
2022/05/24 05:31:30;;;;;;;;;;;;;;;14.30;73.76;99984.03;5089946;28;19931;-78
2022/05/24 05:33:56;;;;;;;;;;;;;;;14.36;71.88;99979.44;5086391;28;19971;-78
2022/05/24 05:36:22;;;;;;;;;;;;;;;14.41;73.36;99985.31;5087306;28;19916;-76
2022/05/24 05:38:48;;;;;;;;;;;;;;;14.38;73.05;99988.06;5073158;28;19934;-77
2022/05/24 05:41:14;;;;;;;;;;;;;;;14.50;73.09;99990.91;5074461;28;19965;-77
2022/05/24 05:43:40;;;;;;;;;;;;;;;14.32;72.42;99999.66;5075075;28;19920;-78
2022/05/24 05:46:07;;;;;;;;;;;;;;;14.33;73.00;99998.72;5092090;28;19931;-78
2022/05/24 05:48:33;;;;;;;;;;;;;;;14.43;72.86;99999.97;5098492;28;19924;-78
2022/05/24 05:50:58;;;;;;;;;;;;;;;14.45;73.37;100007.72;5089237;28;19965;-78
2022/05/24 05:53:23;;;;;;;;;;;;;;;14.26;71.72;100018.25;5095907;28;20373;-77
2022/05/24 05:55:48;;;;;;;;;;;;;;;14.43;73.39;100025.25;5096962;28;19931;-78
2022/05/24 05:58:14;;;;;;;;;;;;;;;14.36;71.79;100024.69;5097909;28;19965;-78
2022/05/24 06:00:40;;;;;;;;;;;;;;;14.33;72.58;100027.47;5102175;28;19938;-78
2022/05/24 06:03:06;;;;;;;;;;;;;;;14.32;72.40;100031.00;5088550;28;20381;-78
2022/05/24 06:05:31;;;;;;;;;;;;;;;14.33;73.57;100038.75;5081375;28;19926;-75
2022/05/24 06:07:57;;;;;;;;;;;;;;;14.25;73.36;100047.88;5086716;28;19950;-77
2022/05/24 06:10:23;;;;;;;;;;;;;;;14.14;73.89;100055.41;5106800;28;19920;-77
2022/05/24 06:12:48;;;;;;;;;;;;;;;14.27;74.25;100051.25;5101103;28;20161;-77
2022/05/24 06:15:13;;;;;;;;;;;;;;;14.13;73.64;100051.94;5091634;28;19930;-77
2022/05/24 06:17:49;;;;;;;;;;;;;;;14.13;73.76;100053.69;5088672;28;19916;-77
2022/05/24 06:20:16;;;;;;;;;;;;;;;14.15;73.64;100052.69;5090835;28;19946;-77
2022/05/24 06:22:42;;;;;;;;;;;;;;;14.25;73.20;100042.66;5089184;28;20440;-77
2022/05/24 06:25:07;;;;;;;;;;;;;;;14.29;72.87;100050.28;5085291;28;20004;-77
2022/05/24 06:27:32;;;;;;;;;;;;;;;14.19;74.12;100062.09;5079338;28;19981;-77
2022/05/24 06:29:58;;;;;;;;;;;;;;;14.07;73.81;100059.19;5088992;28;20011;-77
2022/05/24 06:32:23;;;;;;;;;;;;;;;14.20;73.63;100068.16;5090198;28;20019;-77
2022/05/24 06:34:49;;;;;;;;;;;;;;;14.19;72.94;100056.88;5089739;28;20019;-77
2022/05/24 06:37:18;;;;;;;;;;;;;;;14.04;71.89;100059.34;5087022;28;19924;-77
2022/05/24 06:39:43;;;;;;;;;;;;;;;14.10;73.17;100072.97;5089238;28;20304;-77
2022/05/24 06:42:08;;;;;;;;;;;;;;;13.75;72.21;100064.13;5092736;28;19919;-74
2022/05/24 06:44:34;;;;;;;;;;;;;;;13.92;70.14;100052.06;5091881;28;19924;-74
2022/05/24 06:46:59;;;;;;;;;;;;;;;13.97;71.16;100068.34;5090167;28;19924;-77
2022/05/24 06:49:24;;;;;;;;;;;;;;;13.98;71.45;100085.72;5091117;28;19924;-77
2022/05/24 06:51:50;;;;;;;;;;;;;;;14.12;70.60;100104.22;5106595;28;20002;-77
2022/05/24 06:54:15;;;;;;;;;;;;;;;14.08;72.00;100107.91;5106064;28;19926;-77
2022/05/24 06:56:40;;;;;;;;;;;;;;;14.08;72.49;100105.31;5102658;28;19928;-77
2022/05/24 07:04:34;;;;;;;;;;;;;;;14.01;71.51;100122.16;5092652;28;19981;-77
2022/05/24 07:06:59;;;;;;;;;;;;;;;14.02;73.52;100132.53;5087495;28;20400;-77
2022/05/24 07:09:29;;;;;;;;;;;;;;;14.05;73.56;100136.78;5102562;28;19923;-77
2022/05/24 07:11:54;;;;;;;;;;;;;;;14.02;72.86;100139.53;5084766;28;19945;-77
2022/05/24 07:14:19;;;;;;;;;;;;;;;14.25;70.47;100142.78;5091990;28;19928;-77
2022/05/24 07:16:44;;;;;;;;;;;;;;;14.14;70.66;100138.97;5091123;28;19923;-74
2022/05/24 07:19:10;;;;;;;;;;;;;;;14.04;69.51;100133.31;5072572;28;19959;-77
2022/05/24 07:21:35;;;;;;;;;;;;;;;14.17;70.97;100138.84;5095172;28;20292;-77
2022/05/24 07:24:01;;;;;;;;;;;;;;;14.22;71.17;100142.94;5094044;28;19931;-77
2022/05/24 07:26:26;;;;;;;;;;;;;;;14.36;71.41;100146.66;5096423;28;20289;-78
2022/05/24 07:28:51;;;;;;;;;;;;;;;14.28;72.23;100152.25;5090708;28;19935;-78
2022/05/24 07:31:16;;;;;;;;;;;;;;;14.23;72.41;100141.16;5094273;28;19920;-78
2022/05/24 07:33:42;;;;;;;;;;;;;;;14.31;70.88;100142.50;5096546;28;19945;-78
2022/05/24 07:36:07;;;;;;;;;;;;;;;14.39;70.00;100149.13;5087497;28;19929;-78
2022/05/24 07:38:32;;;;;;;;;;;;;;;14.32;71.26;100159.03;5080693;28;20405;-78
2022/05/24 07:46:26;;;;;;;;;;;;;;;14.26;70.85;100159.31;5091306;28;20023;-77
2022/05/24 07:48:51;;;;;;;;;;;;;;;14.21;72.16;100156.91;5092570;28;20014;-77
2022/05/24 07:51:17;;;;;;;;;;;;;;;14.25;70.33;100160.22;5091291;28;19965;-77
2022/05/24 07:53:42;;;;;;;;;;;;;;;14.19;71.15;100170.94;5105613;28;19941;-77
2022/05/24 07:56:07;;;;;;;;;;;;;;;14.29;71.11;100177.47;5088733;28;20023;-77
2022/05/24 07:58:33;;;;;;;;;;;;;;;14.32;69.69;100174.72;5080731;28;20285;-77
2022/05/24 08:00:58;;;;;;;;;;;;;;;14.48;69.10;100165.22;5096540;28;19925;-77
2022/05/24 08:03:24;;;;;;;;;;;;;;;14.14;68.25;100171.16;5096457;28;19921;-77
2022/05/24 08:05:50;;;;;;;;;;;;;;;14.39;69.34;100173.50;5096564;28;19932;-74
2022/05/24 08:08:17;;;;;;;;;;;;;;;14.45;70.61;100175.81;5084612;28;19932;-76
2022/05/24 08:10:42;;;;;;;;;;;;;;;14.26;69.89;100175.81;5066035;28;19977;-77
2022/05/24 08:13:10;;;;;;;;;;;;;;;14.33;66.74;100171.16;5094850;28;19928;-77
2022/05/24 08:15:35;;;;;;;;;;;;;;;14.34;67.22;100162.41;5096664;28;20853;-77
2022/05/24 08:18:02;;;;;;;;;;;;;;;14.51;67.63;100157.25;5068840;28;19963;-74
2022/05/24 08:20:29;;;;;;;;;;;;;;;14.51;68.51;100162.47;5096258;28;19963;-77
2022/05/24 08:22:55;;;;;;;;;;;;;;;14.26;66.72;100169.75;5084965;28;19988;-77
2022/05/24 08:25:20;;;;;;;;;;;;;;;14.49;67.46;100181.75;5086913;28;19928;-74
2022/05/24 08:27:45;;;;;;;;;;;;;;;14.45;67.87;100178.44;5086252;28;20296;-79
2022/05/24 08:30:12;;;;;;;;;;;;;;;14.61;65.58;100181.19;5090536;28;19920;-76
2022/05/24 08:32:37;;;;;;;;;;;;;;;14.69;66.54;100181.69;5088200;28;19919;-75
2022/05/24 08:35:04;;;;;;;;;;;;;;;14.72;67.86;100189.38;5066378;28;19935;-79
2022/05/24 08:37:29;;;;;;;;;;;;;;;14.71;66.14;100187.69;5085566;28;19924;-79
2022/05/24 08:39:57;;;;;;;;;;;;;;;14.69;64.75;100195.59;5073618;28;19928;-79
2022/05/24 08:42:41;;;;;;;;;;;;;;;14.69;63.51;100189.53;5070564;28;20005;-79
2022/05/24 08:50:40;;;;;;;;;;;;;;;14.61;62.21;100194.28;5080831;28;20033;-79
2022/05/24 08:53:07;;;;;;;;;;;;;;;14.63;61.60;100203.72;5091374;28;20050;-79
2022/05/24 08:55:34;;;;;;;;;;;;;;;14.64;64.54;100213.28;5090924;28;19927;-78
2022/05/24 08:57:59;;;;;;;;;;;;;;;14.68;65.17;100206.16;5091158;28;19935;-79
2022/05/24 09:00:28;;;;;;;;;;;;;;;14.65;61.75;100207.09;5097047;28;19920;-79
2022/05/24 09:02:54;;;;;;;;;;;;;;;14.65;62.76;100222.78;5073906;28;19924;-79
2022/05/24 09:05:20;;;;;;;;;;;;;;;14.73;65.74;100222.47;5096283;28;20838;-79
2022/05/24 09:07:56;;;;;;;;;;;;;;;14.72;62.02;100226.84;5085798;28;20058;-76
2022/05/24 09:10:26;;;;;;;;;;;;;;;14.69;64.02;100228.72;5085552;28;19928;-78
2022/05/24 09:12:51;;;;;;;;;;;;;;;14.72;59.53;100221.59;5085654;28;19923;-79
2022/05/24 09:15:22;;;;;;;;;;;;;;;14.82;60.86;100229.91;5073534;28;19919;-79
2022/05/24 09:18:04;;;;;;;;;;;;;;;14.84;59.76;100225.44;5084906;28;19920;-79
2022/05/24 09:20:29;;;;;;;;;;;;;;;14.77;60.59;100232.72;5062630;28;19928;-79
2022/05/24 09:22:57;;;;;;;;;;;;;;;14.83;59.96;100229.81;5091756;28;20413;-79
2022/05/24 09:25:22;;;;;;;;;;;;;;;15.01;60.02;100241.19;5090589;28;20014;-75
2022/05/24 09:27:53;;;;;;;;;;;;;;;14.97;60.88;100229.19;5069533;28;20050;-79
2022/05/24 09:30:23;;;;;;;;;;;;;;;14.99;61.34;100234.31;5089759;28;20465;-79
2022/05/24 09:32:49;;;;;;;;;;;;;;;15.01;61.52;100248.16;5084739;28;19931;-79
2022/05/24 09:35:18;;;;;;;;;;;;;;;14.75;61.20;100246.78;5070788;28;19920;-79
2022/05/24 09:37:44;;;;;;;;;;;;;;;14.87;59.54;100244.47;5094762;28;19916;-79
2022/05/24 09:40:30;;;;;;;;;;;;;;;14.93;60.08;100247.69;5073985;28;20467;-79
2022/05/24 09:42:55;;;;;;;;;;;;;;;14.83;57.01;100248.13;5083525;28;19920;-75
2022/05/24 09:45:27;;;;;;;;;;;;;;;14.91;57.48;100254.78;5087422;28;19920;-79
2022/05/24 09:47:58;;;;;;;;;;;;;;;14.99;57.49;100256.09;5089530;28;19970;-75
2022/05/24 09:50:29;;;;;;;;;;;;;;;15.03;57.35;100252.44;5065710;28;20464;-75
2022/05/24 09:53:12;;;;;;;;;;;;;;;15.08;56.34;100257.44;5089378;28;19920;-75
2022/05/24 09:55:53;;;;;;;;;;;;;;;15.19;59.11;100255.16;5073305;28;20443;-75
2022/05/24 09:58:21;;;;;;;;;;;;;;;15.30;57.57;100266.78;5086079;28;20282;-79
2022/05/24 10:01:22;;;;;;;;;;;;;;;15.24;56.80;100247.94;5069852;28;19970;-79
2022/05/24 10:03:49;;;;;;;;;;;;;;;15.35;54.96;100249.13;5006619;28;19929;-79
2022/05/24 10:06:28;;;;;;;;;;;;;;;15.36;56.54;100252.59;5070668;28;20374;-76
2022/05/24 10:08:57;;;;;;;;;;;;;;;15.40;58.52;100259.34;5091578;28;19944;-79
2022/05/24 10:11:25;;;;;;;;;;;;;;;15.47;55.76;100252.91;5082658;28;19924;-79
2022/05/24 10:13:59;;;;;;;;;;;;;;;15.40;53.40;100244.50;5085162;28;19920;-75
2022/05/24 10:16:36;;;;;;;;;;;;;;;15.41;52.32;100255.81;5064392;28;19920;-79
2022/05/24 10:19:21;;;;;;;;;;;;;;;15.59;55.95;100259.28;5087972;28;19920;-79
2022/05/24 10:21:56;;;;;;;;;;;;;;;15.47;56.36;100266.00;5091899;28;19924;-79
2022/05/24 10:24:24;;;;;;;;;;;;;;;15.55;56.12;100263.84;5085673;28;19943;-79
2022/05/24 10:26:52;;;;;;;;;;;;;;;15.56;59.28;100273.38;5084362;28;19927;-75
2022/05/24 10:29:24;;;;;;;;;;;;;;;15.42;53.53;100274.03;5083650;28;20019;-75
2022/05/24 10:31:56;;;;;;;;;;;;;;;15.41;53.18;100275.00;5067895;28;20022;-79
2022/05/24 10:40:41;;;;;;;;;;;;;;;15.38;54.74;100295.22;5087598;28;19935;-79
2022/05/24 10:43:24;;;;;;;;;;;;;;;15.32;54.54;100290.28;5099689;28;19920;-79
2022/05/24 10:46:03;;;;;;;;;;;;;;;15.32;56.52;100291.13;5091721;28;19928;-79
2022/05/24 10:48:44;;;;;;;;;;;;;;;15.29;56.63;100290.44;5101654;28;19977;-79
2022/05/24 10:51:21;;;;;;;;;;;;;;;15.33;57.64;100292.00;5087662;28;19920;-79
2022/05/24 10:53:47;;;;;;;;;;;;;;;15.24;58.48;100306.38;5087192;28;19960;-79
2022/05/24 10:56:26;;;;;;;;;;;;;;;15.31;54.99;100288.56;5098223;28;20008;-79
2022/05/24 10:58:52;;;;;;;;;;;;;;;15.39;57.04;100296.94;5084017;28;20380;-76
2022/05/24 11:01:34;;;;;;;;;;;;;;;15.44;58.81;100289.69;5078358;28;19919;-76
2022/05/24 11:04:09;;;;;;;;;;;;;;;15.50;55.76;100289.41;5079991;28;19924;-75
2022/05/24 11:06:34;;;;;;;;;;;;;;;15.26;55.54;100296.66;5092986;28;20296;-79
2022/05/24 11:09:09;;;;;;;;;;;;;;;15.49;55.39;100300.78;5103922;28;19919;-79
2022/05/24 11:11:48;;;;;;;;;;;;;;;15.45;57.60;100295.78;5094039;28;19931;-79
2022/05/24 11:14:20;;;;;;;;;;;;;;;15.53;59.66;100293.63;5064982;28;19920;-79
2022/05/24 11:16:47;;;;;;;;;;;;;;;15.65;57.22;100290.41;5102159;28;19915;-79
2022/05/24 11:19:35;;;;;;;;;;;;;;;15.60;53.17;100282.78;5078902;28;20400;-79
2022/05/24 11:22:05;;;;;;;;;;;;;;;15.62;52.24;100282.72;5093235;28;20485;-79
2022/05/24 11:24:37;;;;;;;;;;;;;;;15.67;52.98;100288.56;5090247;28;20038;-79
2022/05/24 11:27:05;;;;;;;;;;;;;;;15.57;52.87;100285.53;5088161;28;19944;-79
2022/05/24 11:29:45;;;;;;;;;;;;;;;15.69;54.07;100292.78;5083420;28;19935;-75
2022/05/24 11:32:11;;;;;;;;;;;;;;;15.74;52.02;100285.59;5086983;28;20403;-75
2022/05/24 11:34:50;;;;;;;;;;;;;;;15.80;52.87;100287.94;5084293;28;20007;-79
2022/05/24 11:37:27;;;;;;;;;;;;;;;15.74;51.93;100292.59;5091925;28;20005;-79
2022/05/24 11:39:53;;;;;;;;;;;;;;;15.54;52.79;100298.78;5086354;28;19935;-79
2022/05/24 11:42:18;;;;;;;;;;;;;;;15.58;54.12;100296.88;5085533;28;19920;-79
2022/05/24 11:44:43;;;;;;;;;;;;;;;15.63;53.89;100300.94;5087813;28;19961;-79
2022/05/24 11:47:09;;;;;;;;;;;;;;;15.68;52.61;100296.34;5086371;28;20015;-79
2022/05/24 11:49:34;;;;;;;;;;;;;;;15.72;54.78;100308.34;5088105;28;19924;-79
2022/05/24 11:52:00;;;;;;;;;;;;;;;15.76;55.55;100309.94;5083199;28;19963;-79
2022/05/24 11:54:25;;;;;;;;;;;;;;;15.69;53.51;100303.25;5086056;28;20534;-79
2022/05/24 11:57:00;;;;;;;;;;;;;;;15.76;55.16;100315.19;5086095;28;19923;-80
2022/05/24 11:59:46;;;;;;;;;;;;;;;15.77;53.91;100314.25;5088027;28;19928;-75
2022/05/24 12:02:32;;;;;;;;;;;;;;;15.76;51.54;100312.56;5088716;28;19931;-79
2022/05/24 12:07:55;;;;;;;;;;;;;;;15.81;54.50;100320.16;5084990;28;20296;-79
2022/05/24 12:10:21;;;;;;;;;;;;;;;15.88;53.28;100318.97;5086701;28;19932;-80
2022/05/24 12:12:50;;;;;;;;;;;;;;;15.83;54.25;100321.81;5086493;28;20305;-80
2022/05/24 12:15:15;;;;;;;;;;;;;;;15.88;53.36;100325.06;5079361;28;20364;-79
2022/05/24 12:17:41;;;;;;;;;;;;;;;15.91;55.59;100324.03;5089369;28;20007;-79
2022/05/24 12:20:24;;;;;;;;;;;;;;;15.87;58.08;100323.34;5081677;28;19920;-75
2022/05/24 12:23:14;;;;;;;;;;;;;;;15.88;55.68;100317.19;5086597;28;20304;-75
2022/05/24 12:25:58;;;;;;;;;;;;;;;15.75;50.67;100318.72;5087216;28;19924;-75
2022/05/24 12:28:43;;;;;;;;;;;;;;;15.88;52.42;100318.97;5088771;28;19928;-80
2022/05/24 12:31:15;;;;;;;;;;;;;;;15.83;48.71;100324.44;5091603;28;20346;-76
2022/05/24 12:33:40;;;;;;;;;;;;;;;15.88;51.05;100311.09;5089754;28;19923;-79
2022/05/24 12:36:05;;;;;;;;;;;;;;;16.01;52.27;100316.59;5090739;28;19927;-76
2022/05/24 12:38:31;;;;;;;;;;;;;;;15.97;50.24;100303.63;5090458;28;19926;-80
2022/05/24 12:41:09;;;;;;;;;;;;;;;16.06;52.25;100309.31;5070600;28;19920;-79
2022/05/24 12:43:34;;;;;;;;;;;;;;;16.13;52.06;100311.56;5088234;28;19963;-80
2022/05/24 12:46:00;;;;;;;;;;;;;;;16.10;50.58;100311.72;5090287;28;19962;-80
2022/05/24 12:48:37;;;;;;;;;;;;;;;16.11;51.43;100309.94;5090280;28;20340;-80
2022/05/24 12:51:09;;;;;;;;;;;;;;;16.21;52.75;100309.41;5086213;28;19916;-80
2022/05/24 12:53:36;;;;;;;;;;;;;;;16.24;56.18;100317.09;5086706;28;19949;-80
2022/05/24 12:56:04;;;;;;;;;;;;;;;16.27;53.24;100314.31;5071172;28;19963;-80
2022/05/24 12:58:34;;;;;;;;;;;;;;;16.23;51.45;100309.31;5089063;28;19935;-80
2022/05/24 13:01:26;;;;;;;;;;;;;;;16.23;50.89;100304.06;5090161;28;19920;-80
2022/05/24 13:03:57;;;;;;;;;;;;;;;16.26;50.05;100293.41;5066665;28;19963;-80
2022/05/24 13:06:42;;;;;;;;;;;;;;;16.28;51.10;100295.06;5087659;28;19935;-80
2022/05/24 13:09:18;;;;;;;;;;;;;;;16.15;50.04;100298.38;5084265;28;20013;-79
2022/05/24 13:11:45;;;;;;;;;;;;;;;16.25;49.61;100305.72;5087656;28;19950;-80
2022/05/24 13:14:15;;;;;;;;;;;;;;;16.27;49.64;100303.84;5094383;28;19923;-80
2022/05/24 13:16:41;;;;;;;;;;;;;;;16.26;52.99;100314.38;5085533;28;20475;-80
2022/05/24 13:19:06;;;;;;;;;;;;;;;16.18;52.05;100314.81;5069978;28;19931;-80
2022/05/24 13:21:34;;;;;;;;;;;;;;;16.21;50.40;100319.88;5068930;28;19928;-80
2022/05/24 13:24:10;;;;;;;;;;;;;;;16.19;50.24;100311.25;5082878;28;19963;-80
2022/05/24 13:26:36;;;;;;;;;;;;;;;16.12;48.93;100322.97;5087052;28;20404;-79
2022/05/24 13:29:21;;;;;;;;;;;;;;;16.13;48.66;100326.44;5068837;28;19963;-79